Time;durP1;ratioP1;P1;durP2;ratioP2;P2;SDS_P1;SDS_P2;PMS_P1;PMS_P2;Temp;Humidity;BMP_temperature;BMP_pressure;BME280_temperature;BME280_humidity;BME280_pressure;Samples;Min_cycle;Max_cycle;Signal;HPM_P1;HPM_P2
2023/02/04 00:10:28;;;;;;;15.80;7.60;;;;;;;0.54;100.00;100331.96;213473;1292;139238;-87
2023/02/04 00:16:27;;;;;;;12.20;6.20;;;;;;;0.46;100.00;100376.97;213747;1287;138720;-85
2023/02/04 00:22:27;;;;;;;;;;;;;;;;;;;;;
2023/02/04 00:34:29;;;;;;;12.60;5.60;;;;;;;0.35;100.00;100493.68;213790;1293;139524;-85
2023/02/04 00:40:31;;;;;;;10.10;4.40;;;;;;;0.31;100.00;100521.89;213318;1290;139969;-83
2023/02/04 00:46:32;;;;;;;9.00;4.10;;;;;;;0.27;100.00;100549.85;213315;1293;139285;-86
2023/02/04 00:58:35;;;;;;;8.80;3.60;;;;;;;0.23;100.00;100629.41;213175;1290;138288;-85
2023/02/04 01:16:39;;;;;;;7.10;3.00;;;;;;;0.03;100.00;100749.21;213297;1294;139112;-88
2023/02/04 01:22:40;;;;;;;5.80;2.60;;;;;;;0.01;100.00;100770.13;213710;1292;111756;-86
2023/02/04 01:34:42;;;;;;;6.20;2.70;;;;;;;-0.10;100.00;100830.45;213980;1292;112065;-88
2023/02/04 01:46:46;;;;;;;9.10;3.50;;;;;;;-0.18;100.00;100881.92;213340;1292;139243;-88
2023/02/04 01:52:40;;;;;;;7.40;2.90;;;;;;;-0.26;100.00;100913.70;213935;1289;112382;-89
2023/02/04 01:58:41;;;;;;;6.80;2.90;;;;;;;-0.33;100.00;100945.49;213307;1289;138562;-90
2023/02/04 02:10:46;;;;;;;8.80;3.90;;;;;;;-0.43;100.00;101003.77;213255;1295;138950;-90
2023/02/04 02:16:47;;;;;;;12.50;4.80;;;;;;;-0.48;100.00;101021.58;213288;1292;138891;-90
2023/02/04 02:22:51;;;;;;;11.50;4.80;;;;;;;-0.55;100.00;101040.58;213820;1290;99629;-94
2023/02/04 02:28:52;;;;;;;11.70;5.30;;;;;;;-0.58;100.00;101068.20;213824;1290;139134;-86
2023/02/04 02:40:55;;;;;;;10.30;4.90;;;;;;;-0.65;100.00;101125.95;213145;1289;139083;-87
2023/02/04 02:46:48;;;;;;;;;;;;;;;;;;;;;
2023/02/04 02:58:54;;;;;;;9.80;4.70;;;;;;;-0.77;100.00;101198.94;213055;1290;138903;-88
2023/02/04 03:04:55;;;;;;;12.50;5.50;;;;;;;-0.82;100.00;101227.99;213676;1292;139232;-86
2023/02/04 03:10:58;;;;;;;9.90;4.80;;;;;;;-0.87;100.00;101252.46;213153;1293;139053;-88
2023/02/04 03:16:59;;;;;;;11.50;5.30;;;;;;;-0.92;100.00;101278.49;213242;1290;140235;-88
2023/02/04 03:29:01;;;;;;;10.90;4.90;;;;;;;-1.00;100.00;101347.98;213315;1291;140417;-87
2023/02/04 03:47:05;;;;;;;10.60;4.50;;;;;;;-1.16;100.00;101383.98;213097;1292;138958;-89
2023/02/04 03:59:07;;;;;;;7.60;3.60;;;;;;;-1.24;100.00;101433.64;213003;1290;138949;-86
2023/02/04 04:05:09;;;;;;;10.40;4.00;;;;;;;-1.28;100.00;101458.00;213853;1288;99331;-88
2023/02/04 04:11:10;;;;;;;9.70;3.70;;;;;;;-1.32;100.00;101461.96;213130;1289;138605;-89
2023/02/04 04:17:12;;;;;;;9.60;3.60;;;;;;;-1.36;100.00;101477.74;212964;1293;139359;-88
2023/02/04 04:23:13;;;;;;;7.50;3.10;;;;;;;-1.41;100.00;101489.41;213642;1289;98005;-88
2023/02/04 04:29:14;;;;;;;8.30;3.30;;;;;;;-1.43;100.00;101496.38;212965;1289;138951;-88
2023/02/04 04:35:15;;;;;;;7.70;3.40;;;;;;;-1.43;100.00;101509.17;213681;1292;139961;-88
2023/02/04 04:41:13;;;;;;;8.10;3.10;;;;;;;-1.43;100.00;101527.75;213088;1288;138782;-89
2023/02/04 04:47:14;;;;;;;8.70;3.30;;;;;;;-1.44;100.00;101541.89;213144;1290;139007;-88
2023/02/04 04:53:15;;;;;;;9.30;3.50;;;;;;;-1.46;100.00;101556.80;213727;1290;138551;-88
2023/02/04 04:59:16;;;;;;;28.10;10.10;;;;;;;-1.49;100.00;101566.09;213162;1292;138727;-88
2023/02/04 05:11:19;;;;;;;8.10;3.60;;;;;;;-1.56;100.00;101583.35;213278;1289;139100;-88
2023/02/04 05:17:20;;;;;;;10.30;3.90;;;;;;;-1.62;100.00;101601.22;213203;1289;138864;-89
2023/02/04 05:29:23;;;;;;;10.90;5.00;;;;;;;-1.72;100.00;101629.27;213284;1291;140401;-89
2023/02/04 05:35:24;;;;;;;13.50;7.40;;;;;;;-1.76;100.00;101654.04;213584;1293;138694;-88
2023/02/04 05:41:25;;;;;;;13.30;4.90;;;;;;;-1.82;100.00;101678.29;213300;1290;139949;-88
2023/02/04 05:47:26;;;;;;;9.90;3.20;;;;;;;-1.89;100.00;101696.41;213445;1290;139201;-87
2023/02/04 05:59:28;;;;;;;9.80;3.50;;;;;;;-1.97;100.00;101721.41;213198;1289;138637;-87
2023/02/04 06:05:29;;;;;;;8.40;2.60;;;;;;;-1.99;100.00;101728.52;213989;1286;97994;-88
2023/02/04 06:17:32;;;;;;;10.90;4.00;;;;;;;-1.95;100.00;101767.71;213305;1292;138841;-88
2023/02/04 06:23:33;;;;;;;15.40;7.30;;;;;;;-1.92;100.00;101788.82;213763;1290;97950;-87
2023/02/04 06:29:34;;;;;;;14.40;5.80;;;;;;;-1.89;100.00;101802.98;213478;1287;138887;-88
2023/02/04 06:35:36;;;;;;;11.00;4.10;;;;;;;-1.82;100.00;101818.55;213727;1289;97968;-86
2023/02/04 06:41:37;;;;;;;8.20;3.30;;;;;;;-1.75;100.00;101835.70;213507;1287;224414;-88
2023/02/04 06:47:38;;;;;;;6.50;2.20;;;;;;;-1.68;100.00;101854.25;212943;1289;139092;-87
2023/02/04 06:53:40;;;;;;;8.90;1.90;;;;;;;-1.61;100.00;101872.11;213523;1290;138720;-89
2023/02/04 06:59:42;;;;;;;6.80;2.30;;;;;;;-1.52;100.00;101883.39;213036;1292;138807;-87
2023/02/04 07:05:42;;;;;;;5.70;2.40;;;;;;;-1.45;100.00;101892.27;213564;1290;139158;-88
2023/02/04 07:11:43;;;;;;;7.40;2.30;;;;;;;-1.39;100.00;101898.20;213674;1289;139960;-89
2023/02/04 07:17:44;;;;;;;5.10;1.50;;;;;;;-1.29;100.00;101916.30;213465;1290;139294;-89
2023/02/04 07:23:45;;;;;;;5.60;1.80;;;;;;;-1.18;100.00;101930.61;213858;1291;108853;-88
2023/02/04 07:29:39;;;;;;;8.60;2.50;;;;;;;-1.07;100.00;101940.06;213514;1292;233008;-89
2023/02/04 07:35:41;;;;;;;8.90;1.80;;;;;;;-0.96;100.00;101944.32;213927;1290;138559;-88
2023/02/04 07:41:34;;;;;;;;;;;;;;;;;;;;;
2023/02/04 07:47:36;;;;;;;6.10;1.80;;;;;;;-0.76;100.00;101970.84;213488;1290;139512;-85
2023/02/04 07:59:38;;;;;;;7.00;2.60;;;;;;;-0.57;100.00;101979.29;213338;1286;138676;-86
2023/02/04 08:05:39;;;;;;;6.70;2.10;;;;;;;-0.46;100.00;101986.73;213816;1289;139210;-87
2023/02/04 08:17:42;;;;;;;8.50;2.30;;;;;;;-0.34;100.00;102007.12;213231;1287;140765;-87
2023/02/04 08:23:43;;;;;;;;;;;;;;;;;;;;;
2023/02/04 08:29:44;;;;;;;5.30;1.90;;;;;;;-0.30;100.00;102040.34;213355;1287;139307;-92
2023/02/04 08:35:40;;;;;;;;;;;;;;;;;;;;;
2023/02/04 08:41:39;;;;;;;;;;;;;;;;;;;;;
2023/02/04 08:47:41;;;;;;;7.50;2.80;;;;;;;0.15;100.00;102066.91;213587;1290;139226;-88
2023/02/04 08:59:44;;;;;;;8.90;2.70;;;;;;;0.99;100.00;102081.23;213728;1290;138615;-90
2023/02/04 09:05:46;;;;;;;7.10;3.30;;;;;;;1.54;100.00;102078.11;214204;1287;138188;-90
2023/02/04 09:11:30;;;;;;;8.70;2.10;;;;;;;2.17;100.00;102080.13;213669;1290;138592;-90
2023/02/04 09:17:32;;;;;;;3.90;1.20;;;;;;;2.65;100.00;102086.74;213442;1287;138416;-90
2023/02/04 09:23:34;;;;;;;6.70;1.60;;;;;;;3.07;100.00;102098.99;214172;1287;138450;-90
2023/02/04 09:29:33;;;;;;;;;;;;;;;;;;;;;
2023/02/04 09:35:36;;;;;;;3.80;1.30;;;;;;;4.05;100.00;102099.38;213981;1291;139298;-88
2023/02/04 09:41:42;;;;;;;7.50;1.80;;;;;;;4.31;100.00;102104.07;213664;1290;138819;-90
2023/02/04 09:47:46;;;;;;;;;;;;;;;;;;;;;
2023/02/04 09:53:48;;;;;;;4.90;1.70;;;;;;;4.94;100.00;102119.43;213852;1287;99297;-87
2023/02/04 09:59:52;;;;;;;3.60;1.40;;;;;;;5.11;98.14;102127.55;213295;1289;138613;-88
2023/02/04 10:11:53;;;;;;;;;;;;;;;;;;;;;
2023/02/04 10:17:56;;;;;;;6.20;1.70;;;;;;;4.72;92.62;102138.89;213685;1290;139590;-85
2023/02/04 10:23:58;;;;;;;5.20;1.50;;;;;;;4.50;91.25;102148.45;214023;1288;138398;-85
2023/02/04 10:29:50;;;;;;;2.80;1.10;;;;;;;4.47;92.06;102160.86;214353;1287;138318;-84
2023/02/04 10:35:51;;;;;;;4.60;1.30;;;;;;;4.39;91.86;102165.02;214625;1288;138063;-86
2023/02/04 10:42:01;;;;;;;4.50;1.30;;;;;;;4.25;91.55;102168.63;214421;1288;139262;-86
2023/02/04 11:00:06;;;;;;;12.20;4.30;;;;;;;3.61;90.83;102186.84;213965;1289;138320;-85
2023/02/04 11:06:10;;;;;;;8.40;2.30;;;;;;;3.48;90.85;102189.57;214194;1292;138302;-86
